Time;durP1;ratioP1;P1;durP2;ratioP2;P2;SDS_P1;SDS_P2;PMS_P1;PMS_P2;Temp;Humidity;BMP_temperature;BMP_pressure;BME280_temperature;BME280_humidity;BME280_pressure;Samples;Min_cycle;Max_cycle;Signal;HPM_P1;HPM_P2
2022/05/23 00:00:00;;;;;;;13.17;4.53;;;;;;;16.80;61.15;100649.78;6213950;23;20096;-80
2022/05/23 00:02:25;;;;;;;5.87;3.90;;;;;;;16.81;59.92;100654.13;6214956;23;20380;-80
2022/05/23 00:04:51;;;;;;;5.20;3.50;;;;;;;16.78;60.72;100652.47;6215022;23;20005;-80
2022/05/23 00:07:25;;;;;;;7.00;3.57;;;;;;;16.77;61.67;100655.16;6214288;23;20008;-79
2022/05/23 00:09:51;;;;;;;6.32;3.95;;;;;;;16.75;60.48;100651.75;6214865;23;20317;-79
2022/05/23 00:12:16;;;;;;;5.40;3.30;;;;;;;16.77;60.32;100660.41;6215278;23;19996;-79
2022/05/23 00:14:43;;;;;;;3.80;2.80;;;;;;;16.78;60.11;100662.94;6214025;23;20481;-80
2022/05/23 00:17:10;;;;;;;5.95;3.50;;;;;;;16.76;61.25;100654.31;6214798;23;20063;-80
2022/05/23 00:19:36;;;;;;;4.28;2.90;;;;;;;16.78;60.54;100665.56;6215491;23;20028;-79
2022/05/23 00:22:01;;;;;;;3.30;2.97;;;;;;;16.76;61.32;100667.44;6214477;23;20488;-80
2022/05/23 00:24:26;;;;;;;5.40;3.00;;;;;;;16.76;60.71;100658.69;6215035;23;20088;-80
2022/05/23 00:26:52;;;;;;;6.43;3.57;;;;;;;16.73;60.62;100653.59;6214920;23;20009;-80
2022/05/23 00:29:17;;;;;;;4.13;2.93;;;;;;;16.72;61.05;100644.88;6214816;23;20008;-80
2022/05/23 00:37:11;;;;;;;2.22;1.95;;;;;;;16.71;60.78;100640.56;6214856;23;20016;-80
2022/05/23 00:39:37;;;;;;;2.20;2.00;;;;;;;16.70;60.81;100641.47;6215104;23;20005;-80
2022/05/23 00:44:55;;;;;;;1.73;1.63;;;;;;;16.71;60.45;100635.31;6153364;23;20009;-80
2022/05/23 00:47:24;;;;;;;2.15;1.60;;;;;;;16.73;60.69;100643.97;6215263;23;20005;-80
2022/05/23 00:49:49;;;;;;;2.00;1.90;;;;;;;16.71;61.64;100624.00;6214260;23;20020;-80
2022/05/23 00:52:23;;;;;;;4.30;3.10;;;;;;;16.67;61.06;100632.00;6214906;23;20016;-80
2022/05/23 00:54:50;;;;;;;3.33;2.75;;;;;;;16.65;61.25;100619.88;6214487;23;20008;-80
2022/05/23 00:57:25;;;;;;;4.13;2.67;;;;;;;16.64;62.14;100610.31;6214519;23;20083;-80
2022/05/23 00:59:52;;;;;;;6.82;3.28;;;;;;;16.57;62.26;100603.63;6214616;23;20032;-80
2022/05/23 01:02:18;;;;;;;8.65;4.00;;;;;;;16.52;61.42;100599.47;6215195;23;20000;-80
2022/05/23 01:04:44;;;;;;;6.65;3.60;;;;;;;16.51;62.13;100602.13;6213330;23;20477;-80
2022/05/23 01:07:13;;;;;;;8.40;4.43;;;;;;;16.44;62.00;100609.41;6214776;23;20083;-79
2022/05/23 01:09:38;;;;;;;4.85;3.28;;;;;;;16.43;61.41;100606.88;6215261;23;20009;-80
2022/05/23 01:12:04;;;;;;;4.27;2.97;;;;;;;16.42;61.55;100603.41;6216069;23;20005;-80
2022/05/23 01:14:47;;;;;;;6.82;4.38;;;;;;;16.37;61.99;100623.69;6216442;23;20016;-80
2022/05/23 01:17:13;;;;;;;4.93;3.30;;;;;;;16.38;61.75;100620.16;6216032;23;20434;-80
2022/05/23 01:19:38;;;;;;;3.67;2.80;;;;;;;16.40;61.33;100626.19;6215763;23;20020;-80
2022/05/23 01:22:13;;;;;;;3.13;2.53;;;;;;;16.40;61.84;100628.81;6217084;23;20057;-80
2022/05/23 01:24:55;;;;;;;2.80;2.47;;;;;;;16.42;61.38;100619.13;6215938;23;20437;-79
2022/05/23 01:27:21;;;;;;;2.40;2.20;;;;;;;16.39;61.41;100614.00;6216954;23;20015;-80
2022/05/23 01:29:49;;;;;;;2.53;2.20;;;;;;;16.39;61.26;100603.53;6216656;23;20031;-80
2022/05/23 01:32:14;;;;;;;3.25;2.45;;;;;;;16.38;61.51;100598.38;6216218;23;20000;-80
2022/05/23 01:34:42;;;;;;;2.17;2.00;;;;;;;16.34;62.43;100597.63;6216326;23;20009;-80
2022/05/23 01:37:08;;;;;;;2.30;2.10;;;;;;;16.30;62.29;100593.47;6216510;23;20020;-80
2022/05/23 01:39:33;;;;;;;3.03;2.50;;;;;;;16.24;62.02;100593.72;6216374;23;20047;-80
2022/05/23 01:41:58;;;;;;;4.03;2.73;;;;;;;16.21;61.59;100597.31;6215907;23;20000;-80
2022/05/23 01:44:23;;;;;;;3.33;2.70;;;;;;;16.17;62.34;100598.34;6216912;23;20004;-80
2022/05/23 01:46:48;;;;;;;4.63;3.00;;;;;;;16.11;62.29;100591.63;6215685;23;20509;-80
2022/05/23 01:49:14;;;;;;;3.33;2.80;;;;;;;16.10;61.81;100591.69;6216610;23;20004;-80
2022/05/23 01:51:39;;;;;;;2.60;2.20;;;;;;;16.07;62.07;100603.16;6216441;23;20042;-80
2022/05/23 01:54:04;;;;;;;2.87;2.13;;;;;;;16.07;61.83;100603.16;6216019;23;20074;-80
2022/05/23 01:56:30;;;;;;;5.23;3.00;;;;;;;16.10;61.47;100604.78;6216805;23;20036;-80
2022/05/23 02:01:39;;;;;;;3.08;2.20;;;;;;;16.03;61.83;100594.56;6216182;23;20468;-80
2022/05/23 02:04:04;;;;;;;5.77;3.60;;;;;;;15.98;63.20;100586.06;6217451;23;20004;-80
2022/05/23 02:06:29;;;;;;;5.50;3.20;;;;;;;15.90;62.88;100575.91;6216285;23;20044;-79
2022/05/23 02:08:55;;;;;;;4.17;2.80;;;;;;;15.96;62.32;100577.41;6217670;23;20371;-80
2022/05/23 02:11:20;;;;;;;4.57;2.90;;;;;;;15.95;62.87;100578.31;6216541;23;20087;-80
2022/05/23 02:13:46;;;;;;;4.10;3.03;;;;;;;15.91;63.22;100579.38;6215671;23;20079;-80
2022/05/23 02:16:11;;;;;;;3.67;2.60;;;;;;;15.89;62.49;100583.81;6216090;23;20005;-80
2022/05/23 02:18:36;;;;;;;2.83;2.50;;;;;;;15.88;62.58;100577.72;6216387;23;20004;-79
2022/05/23 02:21:02;;;;;;;2.13;2.00;;;;;;;15.88;62.87;100572.50;6214891;23;20001;-79
2022/05/23 02:23:27;;;;;;;2.03;1.90;;;;;;;15.88;62.52;100574.28;6216234;23;20020;-79
2022/05/23 02:25:52;;;;;;;2.20;2.00;;;;;;;15.86;62.30;100578.72;6215927;23;20311;-79
2022/05/23 02:28:19;;;;;;;2.10;2.00;;;;;;;15.86;62.37;100570.88;6215376;23;20032;-80
2022/05/23 02:30:47;;;;;;;2.28;2.08;;;;;;;15.85;62.90;100574.41;6215785;23;20004;-79
2022/05/23 02:33:12;;;;;;;2.35;2.10;;;;;;;15.83;62.98;100566.59;6215941;23;20484;-80
2022/05/23 02:35:38;;;;;;;2.00;1.90;;;;;;;15.82;63.15;100564.03;6215406;23;20008;-80
2022/05/23 02:38:03;;;;;;;2.13;1.93;;;;;;;15.79;63.11;100561.56;6216151;23;20008;-79
2022/05/23 02:40:28;;;;;;;1.90;1.80;;;;;;;15.79;63.18;100558.94;6215688;23;20058;-79
2022/05/23 02:42:54;;;;;;;2.30;2.00;;;;;;;15.77;64.13;100555.53;6214571;23;20004;-79
2022/05/23 02:45:19;;;;;;;2.10;1.90;;;;;;;15.74;63.36;100546.03;6216281;23;20076;-79
2022/05/23 02:47:44;;;;;;;2.30;2.10;;;;;;;15.73;63.04;100542.56;6215464;23;20009;-80
2022/05/23 02:50:11;;;;;;;2.20;2.00;;;;;;;15.71;63.16;100543.53;6214801;23;20005;-80
2022/05/23 02:52:38;;;;;;;2.63;2.10;;;;;;;15.70;63.56;100536.59;6216315;23;20008;-80
2022/05/23 02:55:04;;;;;;;2.10;1.90;;;;;;;15.68;63.41;100533.19;6216241;23;20004;-80
2022/05/23 02:57:29;;;;;;;2.42;2.10;;;;;;;15.66;63.75;100522.81;6214757;23;20001;-80
2022/05/23 02:59:54;;;;;;;4.23;2.60;;;;;;;15.61;65.45;100514.28;6215891;23;20083;-79
2022/05/23 03:05:04;;;;;;;4.43;3.00;;;;;;;15.51;64.76;100484.22;6215601;23;20019;-80
2022/05/23 03:07:29;;;;;;;3.17;2.70;;;;;;;15.48;64.12;100482.56;6215488;23;20013;-80
2022/05/23 03:09:54;;;;;;;3.27;2.63;;;;;;;15.49;64.10;100471.22;6214500;23;20005;-80
2022/05/23 03:12:19;;;;;;;3.33;3.00;;;;;;;15.43;64.93;100455.75;6215912;23;20032;-80
2022/05/23 03:14:45;;;;;;;3.07;2.60;;;;;;;15.41;64.37;100455.00;6215814;23;20414;-80
2022/05/23 03:17:10;;;;;;;2.90;2.60;;;;;;;15.40;64.04;100454.13;6214932;23;20004;-80
2022/05/23 03:19:37;;;;;;;2.63;2.43;;;;;;;15.40;64.49;100445.44;6215597;23;20083;-80
2022/05/23 03:27:33;;;;;;;2.65;2.30;;;;;;;15.36;64.13;100447.34;6215760;23;20003;-80
2022/05/23 03:29:59;;;;;;;2.30;2.10;;;;;;;15.36;64.31;100444.72;6215173;23;20009;-80
2022/05/23 03:32:24;;;;;;;3.07;2.50;;;;;;;15.35;64.35;100437.78;6214405;23;20012;-80
2022/05/23 03:34:49;;;;;;;2.37;2.17;;;;;;;15.33;64.11;100428.28;6215390;23;20012;-80
2022/05/23 03:37:15;;;;;;;2.30;2.10;;;;;;;15.33;64.26;100425.69;6215718;23;20012;-80
2022/05/23 03:39:41;;;;;;;2.55;2.35;;;;;;;15.33;64.50;100425.69;6214047;23;20462;-80
2022/05/23 03:42:07;;;;;;;2.40;2.20;;;;;;;15.30;65.31;100418.81;6215396;23;20081;-80
2022/05/23 03:44:32;;;;;;;2.60;2.40;;;;;;;15.27;64.46;100414.59;6214622;23;20000;-79
2022/05/23 03:46:58;;;;;;;3.03;2.50;;;;;;;15.26;64.60;100412.88;6216102;23;20008;-79
2022/05/23 03:49:23;;;;;;;3.30;2.33;;;;;;;15.25;64.33;100412.94;6215520;23;20008;-81
2022/05/23 03:51:51;;;;;;;2.83;2.20;;;;;;;15.22;64.63;100407.84;6214663;23;20035;-81
2022/05/23 03:54:16;;;;;;;2.55;2.35;;;;;;;15.21;64.95;100401.75;6214901;23;20274;-79
2022/05/23 03:56:42;;;;;;;2.10;2.00;;;;;;;15.21;65.04;100399.13;6215202;23;20086;-80
2022/05/23 03:59:07;;;;;;;2.70;2.20;;;;;;;15.20;64.78;100400.03;6214975;23;20032;-80
2022/05/23 04:01:32;;;;;;;2.43;2.20;;;;;;;15.20;65.12;100399.22;6214983;23;20011;-80
2022/05/23 04:03:58;;;;;;;2.60;2.40;;;;;;;15.22;65.64;100400.84;6215057;23;20007;-80
2022/05/23 04:06:24;;;;;;;2.47;2.25;;;;;;;15.19;65.73;100395.75;6214681;23;20090;-80
2022/05/23 04:08:52;;;;;;;2.33;2.13;;;;;;;15.18;65.35;100390.56;6214332;23;20016;-80
2022/05/23 04:11:17;;;;;;;2.50;2.28;;;;;;;15.18;65.15;100390.56;6215618;23;20088;-80
2022/05/23 04:13:45;;;;;;;3.10;2.40;;;;;;;15.18;65.25;100391.44;6213994;23;20076;-79
2022/05/23 04:16:10;;;;;;;2.35;2.13;;;;;;;15.19;65.73;100384.44;6215015;23;20007;-80
2022/05/23 04:18:36;;;;;;;2.80;2.07;;;;;;;15.18;66.06;100375.75;6215350;23;20004;-79
2022/05/23 04:21:02;;;;;;;2.60;2.40;;;;;;;15.14;65.84;100368.94;6214222;23;20414;-80
2022/05/23 04:23:28;;;;;;;2.00;1.90;;;;;;;15.16;66.22;100366.25;6214954;23;20008;-80
2022/05/23 04:25:53;;;;;;;2.17;1.97;;;;;;;15.16;65.60;100366.25;6214219;23;20008;-80
2022/05/23 04:28:20;;;;;;;2.50;2.30;;;;;;;15.16;65.95;100359.28;6214845;23;20032;-80
2022/05/23 04:30:46;;;;;;;2.63;2.40;;;;;;;15.17;65.69;100371.44;6214970;23;20005;-80
2022/05/23 04:35:58;;;;;;;3.15;2.50;;;;;;;15.20;66.15;100363.44;6213347;23;20790;-79
2022/05/23 04:38:26;;;;;;;2.40;2.20;;;;;;;15.20;65.70;100368.69;6215256;23;20004;-80
2022/05/23 04:40:51;;;;;;;3.00;2.50;;;;;;;15.22;66.69;100372.09;6214157;23;20000;-79
2022/05/23 04:43:17;;;;;;;2.40;2.20;;;;;;;15.25;66.35;100368.50;6215111;23;20032;-80
2022/05/23 04:45:43;;;;;;;2.30;2.10;;;;;;;15.27;67.29;100370.13;6216677;23;20004;-79
2022/05/23 04:50:55;;;;;;;2.75;2.22;;;;;;;15.32;66.46;100341.19;6214477;23;20115;-80
2022/05/23 04:53:20;;;;;;;2.22;2.10;;;;;;;15.35;66.46;100335.81;6215503;23;20011;-79
2022/05/23 04:55:46;;;;;;;2.77;2.20;;;;;;;15.38;66.45;100342.69;6214259;23;20000;-79
2022/05/23 04:58:12;;;;;;;2.97;2.20;;;;;;;15.40;66.65;100344.31;6216089;23;20008;-79
2022/05/23 05:00:39;;;;;;;2.53;2.33;;;;;;;15.43;66.15;100346.78;6215850;23;20363;-79
2022/05/23 05:03:05;;;;;;;2.97;2.40;;;;;;;15.46;66.19;100342.34;6216378;23;20031;-80
2022/05/23 05:05:33;;;;;;;2.97;2.50;;;;;;;15.50;66.17;100336.06;6216465;23;20024;-80
2022/05/23 05:07:59;;;;;;;3.03;2.50;;;;;;;15.52;66.28;100331.59;6216117;23;20063;-80
2022/05/23 05:10:25;;;;;;;2.58;2.38;;;;;;;15.55;66.36;100337.56;6215871;23;20147;-80
2022/05/23 05:12:52;;;;;;;2.83;2.40;;;;;;;15.57;66.22;100327.88;6216622;23;20012;-80
2022/05/23 05:15:18;;;;;;;2.53;2.33;;;;;;;15.60;66.37;100319.91;6216975;23;20005;-80
2022/05/23 05:17:44;;;;;;;2.92;2.30;;;;;;;15.67;66.69;100322.22;6215405;23;20330;-80
2022/05/23 05:20:11;;;;;;;3.28;2.30;;;;;;;15.71;66.63;100305.47;6216621;23;20047;-80
2022/05/23 05:22:36;;;;;;;2.22;2.03;;;;;;;15.75;66.55;100294.81;6216485;23;20008;-80
2022/05/23 05:25:06;;;;;;;2.20;2.00;;;;;;;15.81;66.67;100298.06;6215675;23;20314;-80
2022/05/23 05:27:32;;;;;;;3.40;2.30;;;;;;;15.87;67.65;100287.34;6216413;23;20008;-80
2022/05/23 05:29:57;;;;;;;2.63;2.20;;;;;;;15.93;67.65;100288.81;6214838;23;20123;-80
2022/05/23 05:32:36;;;;;;;3.60;2.87;;;;;;;15.96;69.22;100283.47;6216114;23;20001;-80
2022/05/23 05:35:25;;;;;;;2.53;2.33;;;;;;;16.00;67.41;100285.84;6216932;23;20011;-81
2022/05/23 05:38:13;;;;;;;3.35;2.72;;;;;;;16.05;67.46;100283.03;6215680;23;20016;-80
2022/05/23 05:40:40;;;;;;;3.38;2.60;;;;;;;16.12;66.30;100271.34;6199189;23;20020;-80
2022/05/23 05:43:10;;;;;;;3.38;2.83;;;;;;;16.18;66.68;100276.28;6216110;23;20007;-81
2022/05/23 05:45:50;;;;;;;3.67;2.67;;;;;;;16.23;66.14;100273.44;6215496;23;20012;-81
2022/05/23 05:48:17;;;;;;;3.58;2.50;;;;;;;16.30;67.16;100264.38;6216227;23;20008;-81
2022/05/23 05:50:44;;;;;;;2.40;2.20;;;;;;;16.38;66.27;100255.31;6216237;23;20058;-81
2022/05/23 05:53:11;;;;;;;;;;;;;;;16.41;67.33;100261.22;6214452;23;20016;-81
2022/05/23 05:55:39;;;;;;;4.25;2.90;;;;;;;16.44;68.96;100255.81;6215598;23;19960;-81
2022/05/23 05:58:05;;;;;;;4.22;2.95;;;;;;;16.46;68.65;100245.28;6215754;23;20009;-81
2022/05/23 06:00:30;;;;;;;2.90;2.60;;;;;;;16.51;66.88;100244.13;6216104;23;20090;-81
2022/05/23 06:02:55;;;;;;;2.50;2.30;;;;;;;16.59;67.03;100248.13;6216902;23;20012;-82
2022/05/23 06:05:21;;;;;;;2.90;2.47;;;;;;;16.64;66.00;100241.75;6215684;23;20004;-82
2022/05/23 06:13:14;;;;;;;4.55;3.40;;;;;;;16.85;66.07;100243.34;6215152;23;20070;-83
2022/05/23 06:15:40;;;;;;;4.50;3.40;;;;;;;16.93;66.35;100251.66;6215863;23;20417;-84
2022/05/23 06:18:05;;;;;;;4.93;3.50;;;;;;;16.99;67.03;100248.78;6216482;23;20001;-82
2022/05/23 06:20:30;;;;;;;4.73;3.47;;;;;;;17.08;65.55;100242.19;6214981;23;20015;-85
2022/05/23 06:22:57;;;;;;;4.97;3.30;;;;;;;17.18;67.18;100237.31;6216044;23;20005;-85
2022/05/23 06:25:23;;;;;;;;;;;;;;;17.27;67.79;100226.34;6216309;23;20035;-85
2022/05/23 06:27:48;;;;;;;5.57;3.80;;;;;;;17.36;67.32;100223.22;6214608;23;19915;-85
2022/05/23 06:30:16;;;;;;;6.77;3.90;;;;;;;17.49;65.69;100219.94;6216018;23;20007;-85
2022/05/23 06:32:41;;;;;;;7.22;4.22;;;;;;;17.65;66.56;100228.69;6215556;23;20075;-84
2022/05/23 06:35:07;;;;;;;4.70;3.23;;;;;;;17.81;66.20;100223.44;6188449;23;20082;-84
2022/05/23 06:37:40;;;;;;;4.18;2.83;;;;;;;17.95;65.57;100221.81;6216899;23;20012;-84
2022/05/23 06:40:08;;;;;;;5.95;3.90;;;;;;;18.05;64.99;100205.47;6216269;23;20118;-84
2022/05/23 06:42:34;;;;;;;3.97;3.33;;;;;;;18.16;65.42;100197.00;6215174;23;20027;-84
2022/05/23 06:45:00;;;;;;;7.57;4.83;;;;;;;18.25;63.98;100202.66;6215846;23;20406;-85
2022/05/23 06:47:26;;;;;;;6.63;4.18;;;;;;;18.30;63.84;100208.47;6215537;23;20004;-86
2022/05/23 06:49:54;;;;;;;5.90;4.00;;;;;;;18.33;64.09;100214.41;6216514;23;20505;-88
2022/05/23 06:52:20;;;;;;;4.95;3.30;;;;;;;18.36;64.84;100211.59;6217260;23;20372;-78
2022/05/23 06:54:45;;;;;;;4.60;3.70;;;;;;;18.39;64.13;100210.59;6215736;23;20032;-78
2022/05/23 06:57:14;;;;;;;5.00;3.67;;;;;;;18.42;64.35;100214.81;6216531;23;20001;-79
2022/05/23 06:59:39;;;;;;;4.70;3.20;;;;;;;18.50;64.07;100221.31;6217686;23;20080;-79
2022/05/23 07:12:56;;;;;;;3.33;2.88;;;;;;;18.77;63.61;100212.72;6184953;23;20065;-83
2022/05/23 07:15:27;;;;;;;2.90;2.60;;;;;;;18.77;63.03;100207.44;6185933;23;20005;-83
2022/05/23 07:17:55;;;;;;;3.80;2.70;;;;;;;18.76;63.38;100211.00;6185389;23;20327;-83
2022/05/23 07:20:21;;;;;;;4.13;3.15;;;;;;;18.76;63.48;100208.38;6185953;23;20318;-83
2022/05/23 07:22:46;;;;;;;4.10;3.23;;;;;;;18.76;63.31;100204.94;6184509;23;20092;-83
2022/05/23 07:25:14;;;;;;;5.00;3.30;;;;;;;18.79;63.21;100202.94;6184778;23;20012;-83
2022/05/23 07:27:40;;;;;;;4.38;3.40;;;;;;;18.82;63.53;100204.53;6184071;23;20001;-83
2022/05/23 07:30:06;;;;;;;3.97;3.13;;;;;;;18.86;63.28;100203.44;6185010;23;20354;-83
2022/05/23 07:32:31;;;;;;;5.50;3.37;;;;;;;18.87;63.39;100199.88;6185181;23;20045;-82
2022/05/23 07:34:56;;;;;;;5.30;3.33;;;;;;;18.90;63.61;100204.09;6184960;23;20343;-84
2022/05/23 07:37:22;;;;;;;3.50;2.93;;;;;;;18.91;64.33;100204.00;6184018;23;20061;-84
2022/05/23 07:39:47;;;;;;;2.80;2.53;;;;;;;18.94;65.47;100211.72;6184799;23;20012;-84
2022/05/23 07:42:13;;;;;;;3.67;2.80;;;;;;;18.93;64.57;100211.78;6184038;23;20020;-83
2022/05/23 07:44:39;;;;;;;;;;;;;;;18.95;63.34;100202.06;6183252;23;20013;-83
2022/05/23 07:47:06;;;;;;;4.97;3.08;;;;;;;18.96;63.42;100209.84;6185492;23;19962;-83
2022/05/23 07:49:32;;;;;;;3.55;3.00;;;;;;;18.98;63.80;100200.09;6185670;23;20005;-83
2022/05/23 07:51:58;;;;;;;3.53;3.10;;;;;;;19.05;63.35;100192.69;6183925;23;20654;-83
2022/05/23 08:02:38;;;;;;;4.68;3.60;;;;;;;19.72;61.17;100194.66;6185186;23;20390;-87
2022/05/23 08:05:04;;;;;;;4.25;2.90;;;;;;;19.97;61.92;100189.59;6157993;23;20389;-86
2022/05/23 08:10:16;;;;;;;4.00;3.25;;;;;;;20.39;59.55;100179.78;6123001;23;20052;-86
2022/05/23 08:13:09;;;;;;;6.20;3.40;;;;;;;20.56;59.29;100178.66;6214287;23;20041;-83
2022/05/23 08:20:45;;;;;;;3.38;3.08;;;;;;;20.96;59.02;100154.84;6210367;23;20025;-80
2022/05/23 08:23:10;;;;;;;3.65;3.00;;;;;;;20.94;58.74;100155.91;6214184;23;20019;-82
2022/05/23 08:25:36;;;;;;;3.65;2.70;;;;;;;20.90;59.52;100157.06;6213524;23;20366;-83
2022/05/23 08:28:02;;;;;;;5.28;2.70;;;;;;;20.85;58.94;100153.91;6213120;23;20004;-82
2022/05/23 08:30:27;;;;;;;4.43;3.00;;;;;;;20.77;59.33;100147.38;6214998;23;20361;-82
2022/05/23 08:32:53;;;;;;;3.20;2.80;;;;;;;20.73;59.49;100150.31;6213835;23;19997;-82
2022/05/23 08:35:19;;;;;;;3.10;2.70;;;;;;;20.66;58.84;100153.34;6215124;23;20012;-82
2022/05/23 08:37:47;;;;;;;3.13;2.50;;;;;;;20.63;59.52;100139.53;6214795;23;20321;-82
2022/05/23 08:40:13;;;;;;;3.83;2.70;;;;;;;20.62;59.16;100137.84;6214730;23;20009;-83
2022/05/23 08:42:38;;;;;;;4.65;2.85;;;;;;;20.59;59.71;100138.91;6214767;23;20455;-82
2022/05/23 08:45:18;;;;;;;3.63;2.70;;;;;;;20.59;59.35;100127.53;6214807;23;20008;-83
2022/05/23 08:48:22;;;;;;;5.43;3.00;;;;;;;20.53;59.58;100110.34;6212202;23;20087;-83
2022/05/23 08:51:04;;;;;;;3.05;2.40;;;;;;;20.54;59.52;100114.69;6215056;23;20020;-83
2022/05/23 08:53:46;;;;;;;2.72;2.40;;;;;;;20.56;59.85;100109.28;6215275;23;20005;-82
2022/05/23 08:56:23;;;;;;;2.20;2.00;;;;;;;20.56;59.81;100109.28;6213973;23;20009;-82
2022/05/23 08:58:52;;;;;;;;;;;;;;;20.60;59.32;100111.59;6215508;23;20008;-82
2022/05/23 09:01:28;;;;;;;4.97;2.70;;;;;;;20.58;59.30;100104.75;6214686;23;19931;-82
2022/05/23 09:04:05;;;;;;;3.45;2.70;;;;;;;20.58;59.26;100108.22;6214475;23;20092;-82
2022/05/23 09:06:46;;;;;;;;;;;;;;;20.62;59.18;100104.44;6215845;23;20329;-83
2022/05/23 09:09:19;;;;;;;7.50;3.85;;;;;;;20.56;58.87;100090.84;6214151;23;20321;-82
2022/05/23 09:11:47;;;;;;;6.82;3.33;;;;;;;20.64;58.86;100089.38;6214670;23;20009;-80
2022/05/23 09:14:16;;;;;;;8.05;3.42;;;;;;;20.69;56.69;100073.22;6215197;23;20005;-80
2022/05/23 09:16:54;;;;;;;9.02;4.85;;;;;;;20.59;57.36;100070.38;6213892;23;20005;-80
2022/05/23 09:19:38;;;;;;;6.47;3.45;;;;;;;20.59;58.11;100072.19;6210408;23;20067;-80
2022/05/23 09:22:12;;;;;;;3.78;2.70;;;;;;;20.64;58.33;100072.69;6206461;23;20039;-80
2022/05/23 09:25:00;;;;;;;5.43;3.25;;;;;;;20.66;58.17;100062.88;6214289;23;20008;-80
2022/05/23 09:30:26;;;;;;;2.50;2.30;;;;;;;20.74;58.56;100064.97;6210947;23;20021;-80
2022/05/23 09:36:51;;;;;;;2.65;2.33;;;;;;;20.77;58.90;100051.63;6215840;23;20162;-81
2022/05/23 09:39:34;;;;;;;2.42;2.20;;;;;;;20.75;59.23;100029.78;6215983;23;20032;-80
2022/05/23 09:47:46;;;;;;;4.05;2.85;;;;;;;20.93;58.83;100025.81;6216781;23;20055;-77
2022/05/23 09:50:30;;;;;;;6.70;3.80;;;;;;;20.95;56.71;100016.00;6215634;23;20005;-77
2022/05/23 09:52:57;;;;;;;5.90;3.72;;;;;;;20.99;58.80;100016.63;6215626;23;20009;-77
2022/05/23 09:55:28;;;;;;;3.50;2.90;;;;;;;21.11;58.18;100014.91;6217076;23;20015;-77
2022/05/23 09:57:57;;;;;;;6.10;3.50;;;;;;;21.21;57.83;100007.16;6215966;23;20059;-76
2022/05/23 10:00:22;;;;;;;5.13;3.10;;;;;;;21.29;57.30;100003.00;6216854;23;20009;-80
2022/05/23 10:03:18;;;;;;;4.10;2.77;;;;;;;21.40;57.60;99988.16;6216211;23;20321;-79
2022/05/23 10:05:46;;;;;;;5.35;3.28;;;;;;;21.70;56.57;99985.03;6215328;23;20054;-80
2022/05/23 10:08:33;;;;;;;3.60;3.00;;;;;;;22.08;56.53;99988.34;6216382;23;20423;-80
2022/05/23 10:11:05;;;;;;;5.47;3.00;;;;;;;22.40;54.94;99981.50;6214763;23;20000;-80
2022/05/23 10:13:35;;;;;;;4.93;3.30;;;;;;;22.45;52.99;99980.22;6215589;23;20005;-80
2022/05/23 10:16:13;;;;;;;9.13;4.32;;;;;;;22.50;51.31;99977.19;6215867;23;20414;-80
2022/05/23 10:18:49;;;;;;;8.15;4.35;;;;;;;22.49;52.50;99972.88;6215306;23;20385;-81
2022/05/23 10:21:37;;;;;;;7.45;4.40;;;;;;;22.51;50.94;99965.66;6216227;23;20361;-80
2022/05/23 10:24:05;;;;;;;8.30;4.15;;;;;;;22.57;51.50;99974.91;6216446;23;20023;-81
2022/05/23 10:26:35;;;;;;;7.65;4.60;;;;;;;22.76;51.82;99974.25;6215552;23;20047;-80
2022/05/23 10:29:15;;;;;;;6.53;3.80;;;;;;;22.87;52.91;99983.97;6215487;23;20020;-80
2022/05/23 10:31:48;;;;;;;4.57;3.10;;;;;;;23.08;52.63;99986.69;6216116;23;20083;-79
2022/05/23 10:34:24;;;;;;;3.25;2.50;;;;;;;23.31;53.23;99978.66;6215542;23;20071;-80
2022/05/23 10:36:53;;;;;;;3.08;2.35;;;;;;;23.58;53.45;99979.03;6215400;23;20433;-81
2022/05/23 10:42:07;;;;;;;;;;;;;;;23.96;50.80;99973.28;6216151;23;20070;-81
2022/05/23 10:44:57;;;;;;;6.07;3.60;;;;;;;24.02;49.25;99962.16;6215901;23;20006;-82
2022/05/23 10:48:03;;;;;;;5.20;3.30;;;;;;;24.16;48.85;99959.16;6214995;23;20545;-82
2022/05/23 10:50:52;;;;;;;4.22;3.20;;;;;;;24.40;50.35;99946.50;6216197;23;20012;-81
2022/05/23 10:53:44;;;;;;;3.92;2.75;;;;;;;24.65;47.03;99937.25;6216183;23;20001;-81
2022/05/23 10:56:28;;;;;;;3.67;2.97;;;;;;;24.82;48.12;99925.97;6215543;23;20019;-82
2022/05/23 10:59:07;;;;;;;4.88;3.05;;;;;;;24.97;48.67;99915.78;6215923;23;20045;-82
2022/05/23 11:02:09;;;;;;;8.88;4.38;;;;;;;25.02;46.88;99911.88;6215432;23;20334;-82
2022/05/23 11:05:05;;;;;;;4.25;2.95;;;;;;;25.11;48.70;99906.53;6181551;23;20043;-81
2022/05/23 11:07:48;;;;;;;5.35;3.22;;;;;;;25.33;46.30;99909.03;6214492;23;20035;-83
2022/05/23 11:10:38;;;;;;;4.40;3.20;;;;;;;25.47;48.06;99899.81;6215469;23;20461;-82
2022/05/23 11:13:17;;;;;;;3.22;2.80;;;;;;;25.64;47.40;99893.78;6215838;23;20426;-81
2022/05/23 11:15:51;;;;;;;2.65;2.33;;;;;;;25.81;48.21;99876.22;6214917;23;20429;-83
2022/05/23 11:18:54;;;;;;;4.00;2.70;;;;;;;26.04;47.62;99857.22;6215684;23;20018;-83
2022/05/23 11:21:28;;;;;;;4.45;2.53;;;;;;;26.24;47.29;99841.19;6170502;23;20009;-83
2022/05/23 11:24:08;;;;;;;4.10;2.60;;;;;;;26.40;44.50;99836.06;6214968;23;20051;-83
2022/05/23 11:26:40;;;;;;;3.03;2.35;;;;;;;26.31;46.62;99836.94;6216027;23;20004;-83
2022/05/23 11:35:03;;;;;;;4.47;3.10;;;;;;;25.69;43.28;99817.09;6226065;23;19986;-83
2022/05/23 11:37:43;;;;;;;4.88;3.10;;;;;;;25.55;45.76;99813.13;6214923;23;20066;-83
2022/05/23 11:40:13;;;;;;;3.22;2.80;;;;;;;25.54;45.32;99807.97;6216000;23;20333;-82
2022/05/23 11:43:02;;;;;;;4.47;2.90;;;;;;;25.65;46.56;99806.91;6214595;23;20012;-84
2022/05/23 11:45:57;;;;;;;6.18;2.88;;;;;;;25.74;45.99;99804.22;6215020;23;20008;-82
2022/05/23 11:48:33;;;;;;;6.93;3.20;;;;;;;25.95;45.30;99804.97;6216388;23;20000;-82
2022/05/23 11:51:08;;;;;;;5.10;2.95;;;;;;;26.01;46.05;99793.72;6214469;23;20009;-83
2022/05/23 11:53:37;;;;;;;4.47;2.80;;;;;;;26.00;45.35;99797.38;6215726;23;20076;-81
2022/05/23 11:56:06;;;;;;;2.72;2.20;;;;;;;25.88;45.23;99788.78;6215934;23;20004;-82
2022/05/23 11:58:49;;;;;;;2.40;2.20;;;;;;;25.75;45.59;99778.47;6214723;23;20004;-82
2022/05/23 12:01:17;;;;;;;3.15;2.10;;;;;;;25.66;45.53;99779.38;6215624;23;20005;-82
2022/05/23 12:03:51;;;;;;;2.90;2.28;;;;;;;25.64;45.12;99784.84;6216841;23;20005;-83
2022/05/23 12:06:19;;;;;;;2.17;2.03;;;;;;;25.63;45.15;99777.84;6215669;23;20040;-81
2022/05/23 12:08:57;;;;;;;2.17;2.00;;;;;;;25.60;45.61;99772.81;6215531;23;20334;-82
2022/05/23 12:11:22;;;;;;;2.25;1.95;;;;;;;25.55;45.04;99773.28;6214787;23;20015;-81
2022/05/23 12:13:51;;;;;;;2.47;1.90;;;;;;;25.45;46.10;99775.13;6215315;23;20076;-83
2022/05/23 12:16:36;;;;;;;2.97;2.25;;;;;;;25.35;44.95;99777.78;6215570;23;20075;-84
2022/05/23 12:19:30;;;;;;;2.40;2.15;;;;;;;25.17;44.85;99780.34;6214447;23;20004;-83
2022/05/23 12:22:24;;;;;;;2.25;1.90;;;;;;;24.92;43.39;99769.41;6215044;23;20001;-84
2022/05/23 12:25:09;;;;;;;1.90;1.80;;;;;;;24.78;44.97;99757.41;6210316;23;20008;-85
2022/05/23 12:27:37;;;;;;;2.38;1.67;;;;;;;24.66;45.46;99761.16;6212303;23;20059;-85
2022/05/23 12:30:18;;;;;;;1.73;1.63;;;;;;;24.56;46.15;99760.34;6213549;23;20026;-83
2022/05/23 12:32:47;;;;;;;1.80;1.70;;;;;;;24.44;46.00;99760.47;6213920;23;20004;-83
2022/05/23 12:35:17;;;;;;;1.67;1.58;;;;;;;24.35;46.15;99758.66;6215344;23;20012;-83
2022/05/23 12:37:59;;;;;;;1.83;1.73;;;;;;;24.28;45.35;99754.91;6214981;23;20012;-83
2022/05/23 12:40:42;;;;;;;1.88;1.58;;;;;;;24.27;46.21;99745.28;6213342;23;20015;-83
2022/05/23 12:43:49;;;;;;;2.08;1.60;;;;;;;24.34;46.45;99743.75;6214667;23;20080;-82
2022/05/23 12:46:32;;;;;;;2.00;1.80;;;;;;;24.39;45.91;99732.72;6213229;23;20012;-82
2022/05/23 12:49:35;;;;;;;2.25;1.67;;;;;;;24.42;46.52;99724.47;6214752;23;20023;-82
2022/05/23 12:52:16;;;;;;;1.65;1.55;;;;;;;24.45;43.52;99726.84;6166939;23;20030;-83
2022/05/23 12:55:08;;;;;;;2.03;1.70;;;;;;;24.45;46.20;99724.22;6213367;23;20055;-84
2022/05/23 12:58:11;;;;;;;1.60;1.42;;;;;;;24.44;46.53;99714.56;6214883;23;20005;-86
2022/05/23 13:00:42;;;;;;;2.20;1.70;;;;;;;24.36;46.34;99710.81;6214037;23;20004;-83
2022/05/23 13:03:30;;;;;;;2.63;1.52;;;;;;;24.32;46.43;99704.13;6215340;23;20013;-84